Sylvania, GA (30467)

6:15 AM EDT on July 23, 2014 (GMT -0400)
Plantation (KJYL) Elev 187 ft | 32.65 °N, 81.60 °W | Change Station

Current weather conditions updated 20 minutes ago

Mostly Cloudy
Mostly Cloudy
73 °F
Feels Like 73 °F
N
0
Wind Variable Wind from North

Today is forecast to be nearly the same temperature as yesterday. Slight chance of a thunderstorm.

Today
High -- | Low -- °F
--% Chance of Precip.
Yesterday
High -- | Low -- °F
Precip. -- in
6:34 AM 8:31 PM
Waning Crescent, 11% visible
Pressure 30.07 in
Visibility 5.0 miles
Clouds Mostly Cloudy 7500 ft
Dew Point 73 °F
Humidity 100%
Rainfall 0.00 in
Snow Depth Not available.
UV 0 out of 12
Pollen 3.10 out of 12
Air Quality Not available.
Flu Activity Not available.
METAR KJYL 230955Z AUTO 00000KT 5SM BR BKN075 23/23 A3007 RMK AO2 T02300230

More Conditions Fewer Conditions

Pressure 30.07 in
Visibility 5.0 miles
Clouds Mostly Cloudy 7500 ft
Dew Point 73 °F
Humidity 100%
Rainfall 0.00 in
Snow Depth Not available.
UV 0 out of 12
Pollen 3.10 out of 12
Air Quality Not available.
Flu Activity Not available.
METAR KJYL 230955Z AUTO 00000KT 5SM BR BKN075 23/23 A3007 RMK AO2 T02300230

More Conditions Fewer Conditions

10-Day Weather Forecast

Almanac

Astronomy

Jul. 23, 2014 Rise Set
Actual Time 6:34 AM EDT 8:31 PM EDT
Civil Twilight 6:06 AM EDT 8:58 PM EDT
Nautical Twilight 5:33 AM EDT 9:32 PM EDT
Astronomical Twilight 4:57 AM EDT 10:07 PM EDT
Moon 3:51 AM EDT 6:00 PM EDT
Length of Visible Light 14h 52m
Length of Day
13h 57m
Tomorrow will be 1m 18s shorter.
Waning Crescent, 11% of the Moon is Illuminated
Today
Waning Crescent
Jul 26
New
Aug 3
First Quarter
Aug 10
Full
Aug 17
Last Quarter

Today's Extremes

State Highs State Lows

Community

WunderPhotos

Upload Photos

1,736,535 photos uploaded!

Nearby

Snow Depth

Station Depth Elevation
No new snow has been reported.

Earthquake Activity

City Distance Mag. Time & Date
No recent earthquake activity has been reported nearby.
Minimum magnitude displayed is 2.5.

Coastal Water Temperatures

Place Temperature
No Stations Reporting

Nearby Weather Stations

There are no personal weather stations in this area.